Time;durP1;ratioP1;P1;durP2;ratioP2;P2;SDS_P1;SDS_P2;PMS_P1;PMS_P2;Temp;Humidity;BMP_temperature;BMP_pressure;BME280_temperature;BME280_humidity;BME280_pressure;Samples;Min_cycle;Max_cycle;Signal;HPM_P1;HPM_P2
2023/04/20 00:03:19;;;;;;;5.27;3.87;;;;;;;;;;5016334;28;20189;-84
2023/04/20 00:05:48;;;;;;;6.67;4.03;;;;;;;;;;5028342;28;20254;-83
2023/04/20 00:08:16;;;;;;;4.20;3.80;;;;;;;;;;5032183;28;20244;-84
2023/04/20 00:10:44;;;;;;;4.00;3.70;;;;;;;;;;5026459;28;20234;-84
2023/04/20 00:13:12;;;;;;;4.07;3.77;;;;;;;;;;5024518;28;20214;-84
2023/04/20 00:15:39;;;;;;;5.97;4.00;;;;;;;;;;5032077;28;20232;-84
2023/04/20 00:18:06;;;;;;;5.00;4.50;;;;;;;;;;5032170;28;20258;-85
2023/04/20 00:20:34;;;;;;;5.93;4.30;;;;;;;;;;5031984;28;20241;-84
2023/04/20 00:23:01;;;;;;;5.23;4.33;;;;;;;;;;5032360;28;20207;-84
2023/04/20 00:25:29;;;;;;;5.00;4.40;;;;;;;;;;5021773;28;20235;-84
2023/04/20 00:27:58;;;;;;;4.57;4.07;;;;;;;;;;5028203;28;20272;-84
2023/04/20 00:30:25;;;;;;;4.37;3.83;;;;;;;;;;5034245;28;20249;-84
2023/04/20 00:32:52;;;;;;;4.97;4.53;;;;;;;;;;5025336;28;20214;-85
2023/04/20 00:35:19;;;;;;;5.87;3.97;;;;;;;;;;5032886;28;20795;-84
2023/04/20 00:37:46;;;;;;;5.43;4.70;;;;;;;;;;5023977;28;20236;-85
2023/04/20 00:40:13;;;;;;;5.33;4.57;;;;;;;;;;5021757;28;20209;-84
2023/04/20 00:42:41;;;;;;;6.67;4.83;;;;;;;;;;5027691;28;20207;-84
2023/04/20 00:45:10;;;;;;;5.90;4.50;;;;;;;;;;5022707;28;20674;-83
2023/04/20 00:47:37;;;;;;;4.47;3.93;;;;;;;;;;5018859;28;20229;-84
2023/04/20 00:50:04;;;;;;;4.30;3.80;;;;;;;;;;5028502;28;20217;-84
2023/04/20 00:52:31;;;;;;;3.90;3.50;;;;;;;;;;5025489;28;20226;-84
2023/04/20 00:54:59;;;;;;;7.30;4.33;;;;;;;;;;5026612;28;20210;-84
2023/04/20 00:57:27;;;;;;;4.30;3.57;;;;;;;;;;5024561;28;20678;-83
2023/04/20 00:59:54;;;;;;;5.60;3.70;;;;;;;;;;5020325;28;20235;-84
2023/04/20 01:02:22;;;;;;;3.67;3.30;;;;;;;;;;5025309;28;20234;-85
2023/04/20 01:04:49;;;;;;;3.77;3.30;;;;;;;;;;5027829;28;20210;-84
2023/04/20 01:07:16;;;;;;;3.53;3.23;;;;;;;;;;5022298;28;20571;-84
2023/04/20 01:09:43;;;;;;;4.50;3.73;;;;;;;;;;5029439;28;20207;-84
2023/04/20 01:12:11;;;;;;;5.07;4.30;;;;;;;;;;5015352;28;20231;-84
2023/04/20 01:14:38;;;;;;;7.77;4.17;;;;;;;;;;5029657;28;20233;-84
2023/04/20 01:17:05;;;;;;;12.50;4.20;;;;;;;;;;5030215;28;20248;-83
2023/04/20 01:19:34;;;;;;;5.60;4.30;;;;;;;;;;5024155;28;20230;-84
2023/04/20 01:22:01;;;;;;;5.90;4.60;;;;;;;;;;5015245;28;20230;-83
2023/04/20 01:24:29;;;;;;;5.03;4.53;;;;;;;;;;5021288;28;20211;-84
2023/04/20 01:26:56;;;;;;;4.47;4.00;;;;;;;;;;5018857;28;20300;-84
2023/04/20 01:29:23;;;;;;;5.77;4.60;;;;;;;;;;5023951;28;20270;-83
2023/04/20 01:31:51;;;;;;;5.53;4.00;;;;;;;;;;5030496;28;20222;-84
2023/04/20 01:34:18;;;;;;;6.20;4.50;;;;;;;;;;5020057;28;20211;-84
2023/04/20 01:36:45;;;;;;;4.63;4.13;;;;;;;;;;5016589;28;20236;-84
2023/04/20 01:39:12;;;;;;;6.27;4.20;;;;;;;;;;5026911;28;20222;-83
2023/04/20 01:41:41;;;;;;;5.00;4.50;;;;;;;;;;5022976;28;20244;-83
2023/04/20 01:44:08;;;;;;;6.70;4.50;;;;;;;;;;5023837;28;20208;-83
2023/04/20 01:46:38;;;;;;;4.83;4.23;;;;;;;;;;5022866;28;20240;-84
2023/04/20 01:49:05;;;;;;;4.40;4.00;;;;;;;;;;5023528;28;20208;-84
2023/04/20 01:51:32;;;;;;;6.70;4.30;;;;;;;;;;5016692;28;20222;-84
2023/04/20 01:53:59;;;;;;;5.00;4.10;;;;;;;;;;5023179;28;20216;-84
2023/04/20 01:56:26;;;;;;;6.30;4.97;;;;;;;;;;5026178;28;20263;-85
2023/04/20 01:58:55;;;;;;;4.80;4.30;;;;;;;;;;5026736;28;20233;-84
2023/04/20 02:01:22;;;;;;;6.90;5.00;;;;;;;;;;5015657;28;20236;-84
2023/04/20 02:03:50;;;;;;;5.37;4.47;;;;;;;;;;5023703;28;20205;-84
2023/04/20 02:06:17;;;;;;;4.50;4.10;;;;;;;;;;5023878;28;20248;-84
2023/04/20 02:08:44;;;;;;;4.47;4.07;;;;;;;;;;5031520;28;20207;-84
2023/04/20 02:11:11;;;;;;;7.00;4.37;;;;;;;;;;5026246;28;20245;-83
2023/04/20 02:13:39;;;;;;;5.87;4.30;;;;;;;;;;5024836;28;20658;-84
2023/04/20 02:16:08;;;;;;;5.57;4.13;;;;;;;;;;5025833;28;20240;-84
2023/04/20 02:18:36;;;;;;;4.60;4.07;;;;;;;;;;5033949;28;20303;-84
2023/04/20 02:21:03;;;;;;;4.20;3.90;;;;;;;;;;5025414;28;20232;-83
2023/04/20 02:23:30;;;;;;;4.73;4.13;;;;;;;;;;5018154;28;20235;-84
2023/04/20 02:25:57;;;;;;;7.57;4.13;;;;;;;;;;5026089;28;20242;-83
2023/04/20 02:28:24;;;;;;;5.37;4.23;;;;;;;;;;5022019;28;20226;-83
2023/04/20 02:30:51;;;;;;;5.87;4.83;;;;;;;;;;5022018;28;20233;-83
2023/04/20 02:33:21;;;;;;;6.80;4.03;;;;;;;;;;5016454;28;20211;-84
2023/04/20 02:35:48;;;;;;;6.70;4.00;;;;;;;;;;5019342;28;20235;-83
2023/04/20 02:38:15;;;;;;;5.73;4.53;;;;;;;;;;5023139;28;20223;-84
2023/04/20 02:40:42;;;;;;;3.97;3.67;;;;;;;;;;5019069;28;20234;-83
2023/04/20 02:43:09;;;;;;;5.13;4.27;;;;;;;;;;5024789;28;20204;-84
2023/04/20 02:45:36;;;;;;;6.97;4.70;;;;;;;;;;5024737;28;20238;-84
2023/04/20 02:48:04;;;;;;;4.40;4.00;;;;;;;;;;5022413;28;20236;-84
2023/04/20 02:50:33;;;;;;;7.40;5.20;;;;;;;;;;5017118;28;20227;-84
2023/04/20 02:53:01;;;;;;;4.60;4.20;;;;;;;;;;5017374;28;20203;-84
2023/04/20 02:55:28;;;;;;;7.03;4.50;;;;;;;;;;5025160;28;20266;-84
2023/04/20 02:57:55;;;;;;;5.43;4.47;;;;;;;;;;5022680;28;20231;-83
2023/04/20 03:00:22;;;;;;;6.67;4.83;;;;;;;;;;5023927;28;20207;-84
2023/04/20 03:02:49;;;;;;;4.53;4.13;;;;;;;;;;5030808;28;20200;-83
2023/04/20 03:05:17;;;;;;;6.00;4.27;;;;;;;;;;5016887;28;20217;-84
2023/04/20 03:07:45;;;;;;;7.13;4.90;;;;;;;;;;5025292;28;20256;-84
2023/04/20 03:10:12;;;;;;;4.87;4.47;;;;;;;;;;5022611;28;20211;-84
2023/04/20 03:12:39;;;;;;;5.60;4.57;;;;;;;;;;5021168;28;20283;-84
2023/04/20 03:15:07;;;;;;;6.67;4.90;;;;;;;;;;5014334;28;20211;-84
2023/04/20 03:17:34;;;;;;;7.37;4.80;;;;;;;;;;5024828;28;20219;-84
2023/04/20 03:20:01;;;;;;;12.63;5.37;;;;;;;;;;5032041;28;20297;-84
2023/04/20 03:22:28;;;;;;;4.43;4.03;;;;;;;;;;5016524;28;20288;-84
2023/04/20 03:24:57;;;;;;;5.27;4.47;;;;;;;;;;5025050;28;20283;-84
2023/04/20 03:27:24;;;;;;;4.57;4.10;;;;;;;;;;5021775;28;20234;-84
2023/04/20 03:29:51;;;;;;;6.47;4.90;;;;;;;;;;5020962;28;20206;-82
2023/04/20 03:32:18;;;;;;;6.77;4.93;;;;;;;;;;5018986;28;20235;-83
2023/04/20 03:34:46;;;;;;;4.73;4.33;;;;;;;;;;5026384;28;20210;-82
2023/04/20 03:37:13;;;;;;;5.87;4.77;;;;;;;;;;5030305;28;20279;-83
2023/04/20 03:39:40;;;;;;;7.57;5.40;;;;;;;;;;5034768;28;20597;-83
2023/04/20 03:42:08;;;;;;;7.20;5.30;;;;;;;;;;5035841;28;20243;-83
2023/04/20 03:44:35;;;;;;;6.73;5.50;;;;;;;;;;5022986;28;20658;-82
2023/04/20 03:47:02;;;;;;;6.50;5.10;;;;;;;;;;5024703;28;20711;-83
2023/04/20 03:49:30;;;;;;;5.20;4.70;;;;;;;;;;5029521;28;20207;-83
2023/04/20 03:51:57;;;;;;;8.57;4.83;;;;;;;;;;5018729;28;20227;-83
2023/04/20 03:54:24;;;;;;;5.00;4.50;;;;;;;;;;5013794;28;20210;-82
2023/04/20 03:56:51;;;;;;;6.37;4.70;;;;;;;;;;5019021;28;20257;-85
2023/04/20 03:59:19;;;;;;;4.83;4.33;;;;;;;;;;5024898;28;20226;-84
2023/04/20 04:01:46;;;;;;;6.17;5.00;;;;;;;;;;5024479;28;20226;-84
2023/04/20 04:04:14;;;;;;;5.47;4.60;;;;;;;;;;5024202;28;20286;-85
2023/04/20 04:06:41;;;;;;;5.17;4.67;;;;;;;;;;5021146;28;20239;-84
2023/04/20 04:09:08;;;;;;;6.83;5.10;;;;;;;;;;5021680;28;20216;-85
2023/04/20 04:11:35;;;;;;;8.67;4.83;;;;;;;;;;5024734;28;20223;-85
2023/04/20 04:14:04;;;;;;;5.20;4.70;;;;;;;;;;5025767;28;20216;-85
2023/04/20 04:16:32;;;;;;;6.20;4.90;;;;;;;;;;5021535;28;20269;-85
2023/04/20 04:18:59;;;;;;;9.00;5.03;;;;;;;;;;5021217;28;20241;-86
2023/04/20 04:21:27;;;;;;;7.80;5.20;;;;;;;;;;5015000;28;20254;-86
2023/04/20 04:23:54;;;;;;;10.17;5.30;;;;;;;;;;5024785;28;20226;-85
2023/04/20 04:26:23;;;;;;;5.50;4.90;;;;;;;;;;5015985;28;20697;-85
2023/04/20 04:28:50;;;;;;;8.03;4.57;;;;;;;;;;5024435;28;20210;-86
2023/04/20 04:31:18;;;;;;;5.27;4.77;;;;;;;;;;5022723;28;20602;-84
2023/04/20 04:33:46;;;;;;;9.17;5.47;;;;;;;;;;5020997;28;20195;-85
2023/04/20 04:36:16;;;;;;;15.73;5.17;;;;;;;;;;5020264;28;20314;-84
2023/04/20 04:38:43;;;;;;;6.83;4.40;;;;;;;;;;5018465;28;20219;-83
2023/04/20 04:41:10;;;;;;;9.30;5.27;;;;;;;;;;5019971;28;20259;-83
2023/04/20 04:43:38;;;;;;;5.70;5.07;;;;;;;;;;5028238;28;20270;-84
2023/04/20 04:46:09;;;;;;;5.63;5.03;;;;;;;;;;5019987;28;20259;-85
2023/04/20 04:48:36;;;;;;;6.87;4.87;;;;;;;;;;5024273;28;20195;-86
2023/04/20 04:51:05;;;;;;;8.33;5.10;;;;;;;;;;5023372;28;20257;-86
2023/04/20 04:53:32;;;;;;;6.13;5.53;;;;;;;;;;5024625;28;20195;-85
2023/04/20 04:55:59;;;;;;;5.70;5.10;;;;;;;;;;5023543;28;20241;-84
2023/04/20 04:58:26;;;;;;;6.37;5.40;;;;;;;;;;5021173;28;20273;-84
2023/04/20 05:00:53;;;;;;;7.93;5.20;;;;;;;;;;5019761;28;20238;-84
2023/04/20 05:03:21;;;;;;;8.17;5.67;;;;;;;;;;5021940;28;20214;-84
2023/04/20 05:05:48;;;;;;;9.47;5.90;;;;;;;;;;5018478;28;20224;-85
2023/04/20 05:08:16;;;;;;;8.40;5.13;;;;;;;;;;5021183;28;20223;-85
2023/04/20 05:10:43;;;;;;;7.57;5.00;;;;;;;;;;5019137;28;20238;-85
2023/04/20 05:13:10;;;;;;;10.53;5.13;;;;;;;;;;5028849;28;20576;-84
2023/04/20 05:15:37;;;;;;;8.27;5.57;;;;;;;;;;5031624;28;20740;-84
2023/04/20 05:18:04;;;;;;;8.33;5.63;;;;;;;;;;5024748;28;20227;-86
2023/04/20 05:20:31;;;;;;;8.97;6.17;;;;;;;;;;5020316;28;20338;-85
2023/04/20 05:22:59;;;;;;;9.37;5.63;;;;;;;;;;5020581;28;20251;-85
2023/04/20 05:25:27;;;;;;;10.87;6.17;;;;;;;;;;5020084;28;20230;-84
2023/04/20 05:27:54;;;;;;;11.17;5.83;;;;;;;;;;5011816;28;20614;-85
2023/04/20 05:30:21;;;;;;;8.07;5.87;;;;;;;;;;5011462;28;20215;-84
2023/04/20 05:32:48;;;;;;;7.23;6.17;;;;;;;;;;5012366;28;20214;-86
2023/04/20 05:35:15;;;;;;;7.83;5.87;;;;;;;;;;5012669;28;20211;-86
2023/04/20 05:37:42;;;;;;;6.13;5.53;;;;;;;;;;5020275;28;20229;-86
2023/04/20 05:40:10;;;;;;;7.87;6.10;;;;;;;;;;5021465;28;20645;-86
2023/04/20 05:42:44;;;;;;;11.90;5.87;;;;;;;;;;5016545;28;20291;-86
2023/04/20 05:45:11;;;;;;;12.13;6.73;;;;;;;;;;5015649;28;20207;-85
2023/04/20 05:47:38;;;;;;;6.47;5.77;;;;;;;;;;5026203;28;20217;-86
2023/04/20 05:50:06;;;;;;;8.63;6.20;;;;;;;;;;5019184;28;20211;-86
2023/04/20 05:52:33;;;;;;;9.03;6.20;;;;;;;;;;5023780;28;20211;-85
2023/04/20 05:55:00;;;;;;;8.63;6.33;;;;;;;;;;5023738;28;20222;-85
2023/04/20 05:57:27;;;;;;;7.23;6.53;;;;;;;;;;5023503;28;20234;-84
2023/04/20 05:59:56;;;;;;;8.63;6.43;;;;;;;;;;5023135;28;20225;-85
2023/04/20 06:02:23;;;;;;;9.40;7.17;;;;;;;;;;5024075;28;20282;-84
2023/04/20 06:04:50;;;;;;;13.50;7.47;;;;;;;;;;5026657;28;20200;-85
2023/04/20 06:07:17;;;;;;;9.77;6.60;;;;;;;;;;5030036;28;20347;-84
2023/04/20 06:09:44;;;;;;;8.73;6.10;;;;;;;;;;5031222;28;20694;-85
2023/04/20 06:12:12;;;;;;;9.47;6.40;;;;;;;;;;5018037;28;20242;-85
2023/04/20 06:14:39;;;;;;;11.93;6.03;;;;;;;;;;5023382;28;20196;-85
2023/04/20 06:17:15;;;;;;;11.40;6.83;;;;;;;;;;5022213;28;20257;-85
2023/04/20 06:19:42;;;;;;;12.63;6.60;;;;;;;;;;5022628;28;20205;-85
2023/04/20 06:22:10;;;;;;;8.17;5.47;;;;;;;;;;5021619;28;20231;-85
2023/04/20 06:24:37;;;;;;;9.73;6.10;;;;;;;;;;5023215;28;20210;-85
2023/04/20 06:27:04;;;;;;;10.07;6.17;;;;;;;;;;5024964;28;20242;-85
2023/04/20 06:29:31;;;;;;;8.70;5.73;;;;;;;;;;5016401;28;20216;-85
2023/04/20 06:31:58;;;;;;;6.63;5.93;;;;;;;;;;5025169;28;20704;-84
2023/04/20 06:34:27;;;;;;;9.10;6.17;;;;;;;;;;5033487;28;20205;-84
2023/04/20 06:36:54;;;;;;;7.10;5.50;;;;;;;;;;5024798;28;20241;-85
2023/04/20 06:39:21;;;;;;;9.23;5.97;;;;;;;;;;5031694;28;20319;-85
2023/04/20 06:41:48;;;;;;;9.30;6.37;;;;;;;;;;5017940;28;20226;-84
2023/04/20 06:44:15;;;;;;;6.53;5.87;;;;;;;;;;5025533;28;20218;-85
2023/04/20 06:46:42;;;;;;;8.27;6.30;;;;;;;;;;5021048;28;20254;-85
2023/04/20 06:49:09;;;;;;;10.37;6.43;;;;;;;;;;5021520;28;20225;-85
2023/04/20 06:51:39;;;;;;;11.27;5.73;;;;;;;;;;5020427;28;20249;-85
2023/04/20 06:54:06;;;;;;;8.97;5.90;;;;;;;;;;5020062;28;20213;-86
2023/04/20 06:56:33;;;;;;;6.50;5.37;;;;;;;;;;5029521;28;20254;-85
2023/04/20 06:59:00;;;;;;;7.40;6.27;;;;;;;;;;5026868;28;20234;-85
2023/04/20 07:01:27;;;;;;;6.60;5.90;;;;;;;;;;5023973;28;20603;-85
2023/04/20 07:03:54;;;;;;;8.13;5.60;;;;;;;;;;5032363;28;20221;-85
2023/04/20 07:06:21;;;;;;;6.17;5.53;;;;;;;;;;5024350;28;20237;-85
2023/04/20 07:08:50;;;;;;;8.10;5.50;;;;;;;;;;5022450;28;20208;-84
2023/04/20 07:11:17;;;;;;;5.63;4.90;;;;;;;;;;5020667;28;20234;-85
2023/04/20 07:13:44;;;;;;;9.23;6.10;;;;;;;;;;5017171;28;20569;-86
2023/04/20 07:16:11;;;;;;;6.87;5.67;;;;;;;;;;5031918;28;20241;-86
2023/04/20 07:18:38;;;;;;;9.90;6.27;;;;;;;;;;5026881;28;20208;-86
2023/04/20 07:21:05;;;;;;;6.77;5.50;;;;;;;;;;5027358;28;20238;-86
2023/04/20 07:23:32;;;;;;;6.43;5.67;;;;;;;;;;5025289;28;20212;-86
2023/04/20 07:26:01;;;;;;;6.43;5.83;;;;;;;;;;5032272;28;20237;-87
2023/04/20 07:28:28;;;;;;;6.10;5.50;;;;;;;;;;5023879;28;20235;-88
2023/04/20 07:30:56;;;;;;;9.10;5.00;;;;;;;;;;5032768;28;20237;-87
2023/04/20 07:33:23;;;;;;;5.53;5.00;;;;;;;;;;5028123;28;20685;-86
2023/04/20 07:35:50;;;;;;;6.97;4.97;;;;;;;;;;5021804;28;20239;-86
2023/04/20 07:38:18;;;;;;;6.50;5.30;;;;;;;;;;5024827;28;20581;-87
2023/04/20 07:40:45;;;;;;;7.63;5.10;;;;;;;;;;5023561;28;20276;-86
2023/04/20 07:43:16;;;;;;;6.00;5.03;;;;;;;;;;5018031;28;20235;-87
2023/04/20 07:45:44;;;;;;;6.20;5.20;;;;;;;;;;5023798;28;20721;-87
2023/04/20 07:48:12;;;;;;;5.13;4.63;;;;;;;;;;5025248;28;20231;-86
2023/04/20 07:50:39;;;;;;;5.50;5.00;;;;;;;;;;5022847;28;20227;-86
2023/04/20 07:53:06;;;;;;;6.03;4.90;;;;;;;;;;5026531;28;20215;-87
2023/04/20 07:55:33;;;;;;;7.07;4.83;;;;;;;;;;5029138;28;20241;-87
2023/04/20 07:58:01;;;;;;;7.00;4.70;;;;;;;;;;5026757;28;20234;-88
2023/04/20 08:00:30;;;;;;;4.97;4.47;;;;;;;;;;5003914;28;20289;-87
2023/04/20 08:02:57;;;;;;;5.10;4.60;;;;;;;;;;5031849;28;20206;-87
2023/04/20 08:05:34;;;;;;;5.40;4.80;;;;;;;;;;5030503;28;20288;-87
2023/04/20 08:08:01;;;;;;;5.47;4.97;;;;;;;;;;5024597;28;20237;-86
2023/04/20 08:10:28;;;;;;;5.23;4.60;;;;;;;;;;5023466;28;20230;-87
2023/04/20 08:12:56;;;;;;;5.33;4.83;;;;;;;;;;5024055;28;20206;-86
2023/04/20 08:15:24;;;;;;;6.23;4.67;;;;;;;;;;5031698;28;20238;-87
2023/04/20 08:17:54;;;;;;;7.40;4.80;;;;;;;;;;5032527;28;20223;-87
2023/04/20 08:20:22;;;;;;;6.13;4.53;;;;;;;;;;5031199;28;20827;-87
2023/04/20 08:22:49;;;;;;;6.73;4.10;;;;;;;;;;5032041;28;20293;-87
2023/04/20 08:25:17;;;;;;;5.10;4.20;;;;;;;;;;5031480;28;20696;-88
2023/04/20 08:27:44;;;;;;;6.40;4.90;;;;;;;;;;5020600;28;20231;-87
2023/04/20 08:30:11;;;;;;;4.83;4.33;;;;;;;;;;5019192;28;20568;-87
2023/04/20 08:32:48;;;;;;;5.53;4.20;;;;;;;;;;5032263;28;20210;-87
2023/04/20 08:35:20;;;;;;;4.67;4.27;;;;;;;;;;5031192;28;20511;-86
2023/04/20 08:37:49;;;;;;;5.17;4.47;;;;;;;;;;5025114;28;20693;-87
2023/04/20 08:40:18;;;;;;;7.37;4.80;;;;;;;;;;5022815;28;20234;-87
2023/04/20 08:42:46;;;;;;;5.33;4.23;;;;;;;;;;5005261;28;20203;-87
2023/04/20 08:45:14;;;;;;;4.77;3.90;;;;;;;;;;5016346;28;20203;-87
2023/04/20 08:47:41;;;;;;;7.90;4.43;;;;;;;;;;5023450;28;20227;-87
2023/04/20 08:50:09;;;;;;;6.23;4.83;;;;;;;;;;5030544;28;20206;-88
2023/04/20 08:52:38;;;;;;;5.67;4.37;;;;;;;;;;5026624;28;20226;-88
2023/04/20 08:55:07;;;;;;;4.70;4.00;;;;;;;;;;5022221;28;20301;-87
2023/04/20 08:57:34;;;;;;;5.93;4.90;;;;;;;;;;5022338;28;20222;-87
2023/04/20 09:00:04;;;;;;;5.47;4.30;;;;;;;;;;5021582;28;20230;-86
2023/04/20 09:02:31;;;;;;;5.03;4.20;;;;;;;;;;5014591;28;20242;-87
2023/04/20 09:05:02;;;;;;;5.90;4.03;;;;;;;;;;5031785;28;20626;-87
2023/04/20 09:07:29;;;;;;;6.67;4.30;;;;;;;;;;5023681;28;20227;-87
2023/04/20 09:09:58;;;;;;;5.07;4.30;;;;;;;;;;5031538;28;20736;-87
2023/04/20 09:12:25;;;;;;;5.67;4.20;;;;;;;;;;5022968;28;20243;-87
2023/04/20 09:14:53;;;;;;;4.93;4.50;;;;;;;;;;5034403;28;20214;-88
2023/04/20 09:17:30;;;;;;;5.77;4.00;;;;;;;;;;5035567;28;20242;-87
2023/04/20 09:19:57;;;;;;;5.80;4.20;;;;;;;;;;5035417;28;20723;-88
2023/04/20 09:22:30;;;;;;;4.40;3.87;;;;;;;;;;5026791;28;20235;-87
2023/04/20 09:24:58;;;;;;;4.20;3.80;;;;;;;;;;5024235;28;20203;-88
2023/04/20 09:27:26;;;;;;;5.63;3.67;;;;;;;;;;5023565;28;20235;-90
2023/04/20 09:29:59;;;;;;;4.97;3.90;;;;;;;;;;5024202;28;20204;-89
2023/04/20 09:32:27;;;;;;;6.87;3.50;;;;;;;;;;5022000;28;20237;-90
2023/04/20 09:34:55;;;;;;;3.67;3.10;;;;;;;;;;5035961;28;20207;-90
2023/04/20 09:37:22;;;;;;;3.80;3.50;;;;;;;;;;5035435;28;20333;-89
2023/04/20 09:39:49;;;;;;;6.37;4.53;;;;;;;;;;5027136;28;20261;-90
2023/04/20 09:42:18;;;;;;;4.27;3.50;;;;;;;;;;5034733;28;20235;-89
2023/04/20 09:44:45;;;;;;;3.97;3.47;;;;;;;;;;5024010;28;20462;-90
2023/04/20 09:47:18;;;;;;;3.27;3.07;;;;;;;;;;5021255;28;20724;-90
2023/04/20 09:49:46;;;;;;;5.43;3.33;;;;;;;;;;5024502;28;20269;-90
2023/04/20 09:52:13;;;;;;;4.53;3.90;;;;;;;;;;5021496;28;20254;-89
2023/04/20 09:54:40;;;;;;;3.28;2.88;;;;;;;;;;5024677;28;20223;-89
2023/04/20 09:57:08;;;;;;;4.10;3.42;;;;;;;;;;5022844;28;20235;-89
2023/04/20 09:59:36;;;;;;;3.88;3.58;;;;;;;;;;5024841;28;20585;-89
2023/04/20 10:02:07;;;;;;;3.97;3.60;;;;;;;;;;5025438;28;20230;-90
2023/04/20 10:04:34;;;;;;;6.88;4.32;;;;;;;;;;5035070;28;20282;-91
2023/04/20 10:07:05;;;;;;;4.40;3.30;;;;;;;;;;5022347;28;20239;-91
2023/04/20 10:09:38;;;;;;;3.85;3.45;;;;;;;;;;5026825;28;20211;-91
2023/04/20 10:12:08;;;;;;;4.28;3.30;;;;;;;;;;5027957;28;20242;-90
2023/04/20 10:14:37;;;;;;;4.32;3.20;;;;;;;;;;5026455;28;20210;-90
2023/04/20 10:17:05;;;;;;;8.27;4.45;;;;;;;;;;5031084;28;20262;-88
2023/04/20 10:19:39;;;;;;;4.10;3.47;;;;;;;;;;5025866;28;20217;-91
2023/04/20 10:22:06;;;;;;;4.07;3.28;;;;;;;;;;5029288;28;20289;-90
2023/04/20 10:24:34;;;;;;;3.50;3.20;;;;;;;;;;5023733;28;20210;-90
2023/04/20 10:27:03;;;;;;;4.00;3.25;;;;;;;;;;5013628;28;20243;-91
2023/04/20 10:29:40;;;;;;;4.10;3.30;;;;;;;;;;5033861;28;20211;-90
2023/04/20 10:32:07;;;;;;;4.63;3.28;;;;;;;;;;5028675;28;20230;-90
2023/04/20 10:34:36;;;;;;;3.63;3.28;;;;;;;;;;5027618;28;20203;-90
2023/04/20 10:37:21;;;;;;;3.92;3.45;;;;;;;;;;5029920;28;20258;-90
2023/04/20 10:39:48;;;;;;;4.78;3.22;;;;;;;;;;5015420;28;20199;-90
2023/04/20 10:42:15;;;;;;;4.55;3.50;;;;;;;;;;5028909;28;20606;-90
2023/04/20 10:44:49;;;;;;;3.20;2.97;;;;;;;;;;5018284;28;20619;-90
2023/04/20 10:47:16;;;;;;;5.03;3.72;;;;;;;;;;5029944;28;20242;-91
2023/04/20 10:49:44;;;;;;;4.03;2.92;;;;;;;;;;5024960;28;20231;-90
2023/04/20 10:52:12;;;;;;;3.30;3.00;;;;;;;;;;5034195;28;20223;-89
2023/04/20 10:54:39;;;;;;;3.88;3.47;;;;;;;;;;5022750;28;20207;-88
2023/04/20 10:57:07;;;;;;;3.20;2.90;;;;;;;;;;5029268;28;20259;-87
2023/04/20 10:59:36;;;;;;;3.83;3.30;;;;;;;;;;5017183;28;20218;-87
2023/04/20 11:02:07;;;;;;;3.95;3.42;;;;;;;;;;5022189;28;20240;-88
2023/04/20 11:04:35;;;;;;;4.93;3.25;;;;;;;;;;5022821;28;20198;-87
2023/04/20 11:07:06;;;;;;;3.85;3.40;;;;;;;;;;5033669;28;20253;-89
2023/04/20 11:09:33;;;;;;;3.65;3.30;;;;;;;;;;5034105;28;20206;-88
2023/04/20 11:12:00;;;;;;;4.00;3.60;;;;;;;;;;5033856;28;20239;-90
2023/04/20 11:14:28;;;;;;;5.22;2.85;;;;;;;;;;5018306;28;20225;-89
2023/04/20 11:16:55;;;;;;;4.43;3.38;;;;;;;;;;5025144;28;20234;-89
2023/04/20 11:19:27;;;;;;;3.60;3.13;;;;;;;;;;5018041;28;20685;-89
2023/04/20 11:21:55;;;;;;;4.85;3.22;;;;;;;;;;5016709;28;20578;-89
2023/04/20 11:24:29;;;;;;;6.60;3.63;;;;;;;;;;5018741;28;20215;-89
2023/04/20 11:26:56;;;;;;;3.28;2.97;;;;;;;;;;5021515;28;20249;-89
2023/04/20 11:29:33;;;;;;;3.60;3.22;;;;;;;;;;5023756;28;20290;-89
2023/04/20 11:32:01;;;;;;;3.63;3.33;;;;;;;;;;5025825;28;20230;-89
2023/04/20 11:34:29;;;;;;;4.10;3.08;;;;;;;;;;5033474;28;20210;-89
2023/04/20 11:36:58;;;;;;;3.13;2.83;;;;;;;;;;5029565;28;20237;-90
2023/04/20 11:39:25;;;;;;;3.05;2.70;;;;;;;;;;5028589;28;20221;-88
2023/04/20 11:41:53;;;;;;;2.60;2.40;;;;;;;;;;5024297;28;20653;-87
2023/04/20 11:44:20;;;;;;;3.05;2.83;;;;;;;;;;5026567;28;20211;-87
2023/04/20 11:46:49;;;;;;;6.65;3.25;;;;;;;;;;5030021;28;20243;-86
2023/04/20 11:49:16;;;;;;;3.70;3.25;;;;;;;;;;5026986;28;20279;-86
2023/04/20 11:51:45;;;;;;;2.80;2.60;;;;;;;;;;5025964;28;20222;-86
2023/04/20 11:54:12;;;;;;;3.00;2.80;;;;;;;;;;5021741;28;20264;-86
2023/04/20 11:56:40;;;;;;;3.58;3.05;;;;;;;;;;5016650;28;20231;-87
2023/04/20 11:59:08;;;;;;;4.15;2.90;;;;;;;;;;5030467;28;20207;-88
2023/04/20 12:01:35;;;;;;;3.28;2.97;;;;;;;;;;5030072;28;20242;-90
2023/04/20 12:04:02;;;;;;;3.00;2.80;;;;;;;;;;5026322;28;20665;-90
2023/04/20 12:06:34;;;;;;;5.38;2.70;;;;;;;;;;5025330;28;20685;-91
2023/04/20 12:09:04;;;;;;;3.20;2.83;;;;;;;;;;5021707;28;20206;-90
2023/04/20 12:11:32;;;;;;;5.50;3.10;;;;;;;;;;5028760;28;20839;-90
2023/04/20 12:13:59;;;;;;;5.00;2.88;;;;;;;;;;5030253;28;20207;-86
2023/04/20 12:16:26;;;;;;;2.90;2.60;;;;;;;;;;5032443;28;20656;-88
2023/04/20 12:18:53;;;;;;;2.88;2.65;;;;;;;;;;5030460;28;20207;-88
2023/04/20 12:21:20;;;;;;;2.92;2.70;;;;;;;;;;5031898;28;20715;-87
2023/04/20 12:23:48;;;;;;;3.15;2.92;;;;;;;;;;5023722;28;20696;-88
2023/04/20 12:26:16;;;;;;;3.35;3.05;;;;;;;;;;5018142;28;20225;-88
2023/04/20 12:28:44;;;;;;;3.67;2.72;;;;;;;;;;5033472;28;20217;-87
2023/04/20 12:31:11;;;;;;;3.05;2.75;;;;;;;;;;5017126;28;20226;-88
2023/04/20 12:33:38;;;;;;;3.33;3.03;;;;;;;;;;5033061;28;20198;-87
2023/04/20 12:36:05;;;;;;;3.47;3.17;;;;;;;;;;5024468;28;20226;-88
2023/04/20 12:38:45;;;;;;;3.85;3.08;;;;;;;;;;5024946;28;20233;-88
2023/04/20 12:41:15;;;;;;;3.25;2.95;;;;;;;;;;5026804;28;20241;-87
2023/04/20 12:43:43;;;;;;;3.33;3.03;;;;;;;;;;5026602;28;20631;-88
2023/04/20 12:46:10;;;;;;;5.07;3.90;;;;;;;;;;5023936;28;21027;-88
2023/04/20 12:48:37;;;;;;;5.70;3.85;;;;;;;;;;5016710;28;20225;-88
2023/04/20 12:51:04;;;;;;;4.05;3.65;;;;;;;;;;5039572;28;20222;-88
2023/04/20 12:53:31;;;;;;;3.33;3.03;;;;;;;;;;5038112;28;20202;-88
2023/04/20 12:55:59;;;;;;;3.72;3.08;;;;;;;;;;5030500;28;20299;-88
2023/04/20 12:58:26;;;;;;;3.72;3.22;;;;;;;;;;5032995;28;20767;-88
2023/04/20 13:00:54;;;;;;;3.53;3.20;;;;;;;;;;5029588;28;20239;-89
2023/04/20 13:03:21;;;;;;;4.05;3.65;;;;;;;;;;5026493;28;20203;-88
2023/04/20 13:05:48;;;;;;;3.65;3.35;;;;;;;;;;5036146;28;20233;-89
2023/04/20 13:08:16;;;;;;;4.18;3.05;;;;;;;;;;5028114;28;20223;-89
2023/04/20 13:10:43;;;;;;;3.25;3.05;;;;;;;;;;5036575;28;20261;-88
2023/04/20 13:13:11;;;;;;;3.40;3.10;;;;;;;;;;5026866;28;20207;-89
2023/04/20 13:15:38;;;;;;;3.42;3.08;;;;;;;;;;5036212;28;20227;-88
2023/04/20 13:18:08;;;;;;;4.13;3.25;;;;;;;;;;5039833;28;20222;-89
2023/04/20 13:20:35;;;;;;;3.08;2.83;;;;;;;;;;5031474;28;20780;-88
2023/04/20 13:23:02;;;;;;;3.13;2.63;;;;;;;;;;5028231;28;20246;-88
2023/04/20 13:25:31;;;;;;;3.85;2.80;;;;;;;;;;5027566;28;20282;-88
2023/04/20 13:27:58;;;;;;;3.22;3.00;;;;;;;;;;5027519;28;20316;-88
2023/04/20 13:30:25;;;;;;;3.25;2.88;;;;;;;;;;5027366;28;20243;-88
2023/04/20 13:32:53;;;;;;;4.50;2.80;;;;;;;;;;5028376;28;20217;-88
2023/04/20 13:35:21;;;;;;;5.53;3.07;;;;;;;;;;5033183;28;20213;-90
2023/04/20 13:37:48;;;;;;;3.40;3.10;;;;;;;;;;5031058;28;20230;-89
2023/04/20 13:40:15;;;;;;;3.37;3.07;;;;;;;;;;5025901;28;20712;-90
2023/04/20 13:42:42;;;;;;;5.40;2.97;;;;;;;;;;5028673;28;20222;-90
2023/04/20 13:45:10;;;;;;;5.23;3.47;;;;;;;;;;5038361;28;20211;-89
2023/04/20 13:47:37;;;;;;;4.47;3.33;;;;;;;;;;5039441;28;20249;-90
2023/04/20 13:50:05;;;;;;;3.50;3.20;;;;;;;;;;5030202;28;20261;-90
2023/04/20 13:52:33;;;;;;;4.97;3.27;;;;;;;;;;5039657;28;20202;-89
2023/04/20 13:55:00;;;;;;;4.03;3.00;;;;;;;;;;5030542;28;20218;-90
2023/04/20 13:57:30;;;;;;;3.63;3.33;;;;;;;;;;5038500;28;20231;-90
2023/04/20 13:59:57;;;;;;;3.50;3.13;;;;;;;;;;5038006;28;20211;-90
2023/04/20 14:02:24;;;;;;;4.00;3.60;;;;;;;;;;5026733;28;20223;-89
2023/04/20 14:04:51;;;;;;;4.43;3.37;;;;;;;;;;5035650;28;20242;-90
2023/04/20 14:07:18;;;;;;;5.87;3.47;;;;;;;;;;5021967;28;20254;-90
2023/04/20 14:09:47;;;;;;;3.70;3.27;;;;;;;;;;5025345;28;20207;-90
2023/04/20 14:12:14;;;;;;;3.50;3.00;;;;;;;;;;5035260;28;20735;-90
2023/04/20 14:14:41;;;;;;;2.97;2.77;;;;;;;;;;5028438;28;20572;-90
2023/04/20 14:17:10;;;;;;;3.20;2.90;;;;;;;;;;5035313;28;20313;-90
2023/04/20 14:19:37;;;;;;;3.40;3.17;;;;;;;;;;5035667;28;20209;-89
2023/04/20 14:22:04;;;;;;;4.70;3.27;;;;;;;;;;5015594;28;20270;-89
2023/04/20 14:24:36;;;;;;;3.00;2.70;;;;;;;;;;5024138;28;20205;-89
2023/04/20 14:27:05;;;;;;;3.43;3.13;;;;;;;;;;5030066;28;20226;-89
2023/04/20 14:29:32;;;;;;;3.17;2.80;;;;;;;;;;5029082;28;20202;-89
2023/04/20 14:31:59;;;;;;;2.93;2.73;;;;;;;;;;5034787;28;20223;-90
2023/04/20 14:34:28;;;;;;;3.17;2.87;;;;;;;;;;5035358;28;20298;-90
2023/04/20 14:36:55;;;;;;;3.07;2.87;;;;;;;;;;5025079;28;20697;-88
2023/04/20 14:39:22;;;;;;;3.37;3.07;;;;;;;;;;5020620;28;20206;-87
2023/04/20 14:41:49;;;;;;;4.27;3.87;;;;;;;;;;5034418;28;20226;-89
2023/04/20 14:44:18;;;;;;;3.30;2.97;;;;;;;;;;5030847;28;20208;-90
2023/04/20 14:46:45;;;;;;;4.40;3.13;;;;;;;;;;5031903;28;20246;-90
2023/04/20 14:49:12;;;;;;;3.30;3.00;;;;;;;;;;5035662;28;20238;-90